sensor_id;sensor_type;location;lat;lon;timestamp;P1;durP1;ratioP1;P2;durP2;ratioP2
9972;SDS011;5027;53.560;10.062;2023-02-21T00:02:21;1.17;;;1.03;;
9972;SDS011;5027;53.560;10.062;2023-02-21T00:05:07;2.30;;;1.37;;
9972;SDS011;5027;53.560;10.062;2023-02-21T00:07:52;1.93;;;1.40;;
9972;SDS011;5027;53.560;10.062;2023-02-21T00:10:37;1.67;;;1.00;;
9972;SDS011;5027;53.560;10.062;2023-02-21T00:13:23;1.33;;;0.90;;
9972;SDS011;5027;53.560;10.062;2023-02-21T00:16:12;1.10;;;0.90;;
9972;SDS011;5027;53.560;10.062;2023-02-21T00:18:59;2.10;;;0.90;;
9972;SDS011;5027;53.560;10.062;2023-02-21T00:21:44;1.30;;;1.13;;
9972;SDS011;5027;53.560;10.062;2023-02-21T00:24:29;2.73;;;1.30;;
9972;SDS011;5027;53.560;10.062;2023-02-21T00:27:15;2.93;;;1.13;;
9972;SDS011;5027;53.560;10.062;2023-02-21T00:30:00;2.13;;;1.17;;
9972;SDS011;5027;53.560;10.062;2023-02-21T00:32:47;2.30;;;1.73;;
9972;SDS011;5027;53.560;10.062;2023-02-21T00:35:33;2.20;;;1.27;;
9972;SDS011;5027;53.560;10.062;2023-02-21T00:38:18;2.43;;;1.30;;
9972;SDS011;5027;53.560;10.062;2023-02-21T00:41:04;1.50;;;1.10;;
9972;SDS011;5027;53.560;10.062;2023-02-21T00:43:49;1.43;;;1.10;;
9972;SDS011;5027;53.560;10.062;2023-02-21T00:46:35;2.40;;;1.23;;
9972;SDS011;5027;53.560;10.062;2023-02-21T00:49:20;1.10;;;1.00;;
9972;SDS011;5027;53.560;10.062;2023-02-21T00:52:05;1.67;;;1.20;;
9972;SDS011;5027;53.560;10.062;2023-02-21T00:54:51;2.03;;;1.20;;
9972;SDS011;5027;53.560;10.062;2023-02-21T00:57:36;1.83;;;1.10;;
9972;SDS011;5027;53.560;10.062;2023-02-21T01:00:22;0.97;;;0.93;;
9972;SDS011;5027;53.560;10.062;2023-02-21T01:03:08;1.13;;;1.00;;
9972;SDS011;5027;53.560;10.062;2023-02-21T01:05:55;1.77;;;1.20;;
9972;SDS011;5027;53.560;10.062;2023-02-21T01:08:44;1.60;;;1.03;;
9972;SDS011;5027;53.560;10.062;2023-02-21T01:11:30;1.93;;;1.10;;
9972;SDS011;5027;53.560;10.062;2023-02-21T01:14:16;1.37;;;1.10;;
9972;SDS011;5027;53.560;10.062;2023-02-21T01:17:02;1.03;;;0.80;;
9972;SDS011;5027;53.560;10.062;2023-02-21T01:19:47;1.03;;;0.93;;
9972;SDS011;5027;53.560;10.062;2023-02-21T01:22:33;1.10;;;0.90;;
9972;SDS011;5027;53.560;10.062;2023-02-21T01:25:19;2.30;;;1.10;;
9972;SDS011;5027;53.560;10.062;2023-02-21T01:28:04;1.67;;;1.00;;
9972;SDS011;5027;53.560;10.062;2023-02-21T01:30:49;1.40;;;1.00;;
9972;SDS011;5027;53.560;10.062;2023-02-21T01:33:35;1.60;;;1.20;;
9972;SDS011;5027;53.560;10.062;2023-02-21T01:36:25;1.27;;;1.03;;
9972;SDS011;5027;53.560;10.062;2023-02-21T01:39:12;1.50;;;1.10;;
9972;SDS011;5027;53.560;10.062;2023-02-21T01:41:57;1.63;;;1.00;;
9972;SDS011;5027;53.560;10.062;2023-02-21T01:44:45;1.17;;;1.00;;
9972;SDS011;5027;53.560;10.062;2023-02-21T01:47:32;3.57;;;1.20;;
9972;SDS011;5027;53.560;10.062;2023-02-21T01:50:22;1.33;;;0.90;;
9972;SDS011;5027;53.560;10.062;2023-02-21T01:53:13;1.40;;;1.10;;
9972;SDS011;5027;53.560;10.062;2023-02-21T01:56:09;2.10;;;1.20;;
9972;SDS011;5027;53.560;10.062;2023-02-21T01:58:56;1.13;;;0.90;;
9972;SDS011;5027;53.560;10.062;2023-02-21T02:01:52;1.00;;;0.90;;
9972;SDS011;5027;53.560;10.062;2023-02-21T02:04:42;1.37;;;1.10;;
9972;SDS011;5027;53.560;10.062;2023-02-21T02:07:29;1.43;;;1.00;;
9972;SDS011;5027;53.560;10.062;2023-02-21T02:10:16;1.53;;;1.00;;
9972;SDS011;5027;53.560;10.062;2023-02-21T02:13:09;1.83;;;0.93;;
9972;SDS011;5027;53.560;10.062;2023-02-21T02:15:59;1.10;;;1.00;;
9972;SDS011;5027;53.560;10.062;2023-02-21T02:18:52;0.90;;;0.90;;
9972;SDS011;5027;53.560;10.062;2023-02-21T02:21:36;1.43;;;0.90;;
9972;SDS011;5027;53.560;10.062;2023-02-21T02:24:39;1.67;;;1.13;;
9972;SDS011;5027;53.560;10.062;2023-02-21T02:30:30;2.00;;;1.20;;
9972;SDS011;5027;53.560;10.062;2023-02-21T02:36:05;1.77;;;1.10;;
9972;SDS011;5027;53.560;10.062;2023-02-21T02:41:48;1.63;;;1.10;;
9972;SDS011;5027;53.560;10.062;2023-02-21T02:44:09;0.97;;;0.87;;
9972;SDS011;5027;53.560;10.062;2023-02-21T02:46:51;1.43;;;1.13;;
9972;SDS011;5027;53.560;10.062;2023-02-21T02:49:21;0.87;;;0.83;;
9972;SDS011;5027;53.560;10.062;2023-02-21T02:51:51;1.97;;;1.30;;
9972;SDS011;5027;53.560;10.062;2023-02-21T02:54:21;1.73;;;1.00;;
9972;SDS011;5027;53.560;10.062;2023-02-21T02:56:48;1.07;;;0.90;;
9972;SDS011;5027;53.560;10.062;2023-02-21T02:59:24;0.90;;;0.80;;
9972;SDS011;5027;53.560;10.062;2023-02-21T03:04:45;1.20;;;0.80;;
9972;SDS011;5027;53.560;10.062;2023-02-21T03:10:17;1.33;;;0.90;;
9972;SDS011;5027;53.560;10.062;2023-02-21T03:13:14;2.10;;;1.10;;
9972;SDS011;5027;53.560;10.062;2023-02-21T03:15:54;0.77;;;0.70;;
9972;SDS011;5027;53.560;10.062;2023-02-21T03:18:27;1.40;;;0.90;;
9972;SDS011;5027;53.560;10.062;2023-02-21T03:21:15;1.10;;;1.00;;
9972;SDS011;5027;53.560;10.062;2023-02-21T03:23:47;1.13;;;0.90;;
9972;SDS011;5027;53.560;10.062;2023-02-21T03:26:16;1.97;;;1.00;;
9972;SDS011;5027;53.560;10.062;2023-02-21T03:28:47;3.10;;;1.30;;
9972;SDS011;5027;53.560;10.062;2023-02-21T03:31:18;0.90;;;0.80;;
9972;SDS011;5027;53.560;10.062;2023-02-21T03:33:49;1.50;;;1.10;;
9972;SDS011;5027;53.560;10.062;2023-02-21T03:36:15;2.90;;;0.70;;
9972;SDS011;5027;53.560;10.062;2023-02-21T03:38:42;1.73;;;0.83;;
9972;SDS011;5027;53.560;10.062;2023-02-21T03:41:09;0.60;;;0.60;;
9972;SDS011;5027;53.560;10.062;2023-02-21T03:43:38;0.80;;;0.80;;
9972;SDS011;5027;53.560;10.062;2023-02-21T03:46:05;0.90;;;0.90;;
9972;SDS011;5027;53.560;10.062;2023-02-21T03:48:33;1.00;;;0.90;;
9972;SDS011;5027;53.560;10.062;2023-02-21T03:51:09;0.60;;;0.60;;
9972;SDS011;5027;53.560;10.062;2023-02-21T03:53:35;1.17;;;1.00;;
9972;SDS011;5027;53.560;10.062;2023-02-21T03:56:04;1.37;;;0.90;;
9972;SDS011;5027;53.560;10.062;2023-02-21T03:58:46;1.27;;;0.80;;
9972;SDS011;5027;53.560;10.062;2023-02-21T04:01:13;1.63;;;0.70;;
9972;SDS011;5027;53.560;10.062;2023-02-21T04:03:41;1.10;;;1.00;;
9972;SDS011;5027;53.560;10.062;2023-02-21T04:06:08;1.27;;;1.17;;
9972;SDS011;5027;53.560;10.062;2023-02-21T04:08:35;2.00;;;1.10;;
9972;SDS011;5027;53.560;10.062;2023-02-21T04:11:02;1.27;;;1.00;;
9972;SDS011;5027;53.560;10.062;2023-02-21T04:13:32;1.50;;;1.00;;
9972;SDS011;5027;53.560;10.062;2023-02-21T04:16:00;1.33;;;1.20;;
9972;SDS011;5027;53.560;10.062;2023-02-21T04:18:28;0.60;;;0.60;;
9972;SDS011;5027;53.560;10.062;2023-02-21T04:20:58;1.80;;;1.00;;
9972;SDS011;5027;53.560;10.062;2023-02-21T04:23:25;1.43;;;0.97;;
9972;SDS011;5027;53.560;10.062;2023-02-21T04:25:51;1.20;;;1.10;;
9972;SDS011;5027;53.560;10.062;2023-02-21T04:28:25;2.80;;;1.67;;
9972;SDS011;5027;53.560;10.062;2023-02-21T04:30:51;0.77;;;0.77;;
9972;SDS011;5027;53.560;10.062;2023-02-21T04:33:19;0.83;;;0.83;;
9972;SDS011;5027;53.560;10.062;2023-02-21T04:35:45;0.83;;;0.70;;
9972;SDS011;5027;53.560;10.062;2023-02-21T04:38:21;0.67;;;0.67;;
9972;SDS011;5027;53.560;10.062;2023-02-21T04:40:48;1.93;;;1.07;;
9972;SDS011;5027;53.560;10.062;2023-02-21T04:43:15;0.73;;;0.73;;
9972;SDS011;5027;53.560;10.062;2023-02-21T04:45:41;5.63;;;1.77;;
9972;SDS011;5027;53.560;10.062;2023-02-21T04:48:08;9.00;;;2.60;;
9972;SDS011;5027;53.560;10.062;2023-02-21T04:50:35;5.07;;;1.63;;
9972;SDS011;5027;53.560;10.062;2023-02-21T04:53:02;1.20;;;0.87;;
9972;SDS011;5027;53.560;10.062;2023-02-21T04:55:28;10.63;;;3.70;;
9972;SDS011;5027;53.560;10.062;2023-02-21T04:57:55;1.13;;;0.87;;
9972;SDS011;5027;53.560;10.062;2023-02-21T05:00:22;14.60;;;3.60;;
9972;SDS011;5027;53.560;10.062;2023-02-21T05:02:48;13.47;;;3.87;;
9972;SDS011;5027;53.560;10.062;2023-02-21T05:05:15;10.80;;;3.77;;
9972;SDS011;5027;53.560;10.062;2023-02-21T05:07:42;14.43;;;4.20;;
9972;SDS011;5027;53.560;10.062;2023-02-21T05:10:09;12.90;;;3.83;;
9972;SDS011;5027;53.560;10.062;2023-02-21T05:12:37;7.33;;;2.20;;
9972;SDS011;5027;53.560;10.062;2023-02-21T05:15:05;14.30;;;3.70;;
9972;SDS011;5027;53.560;10.062;2023-02-21T05:17:33;10.57;;;3.73;;
9972;SDS011;5027;53.560;10.062;2023-02-21T05:19:59;14.40;;;4.10;;
9972;SDS011;5027;53.560;10.062;2023-02-21T05:22:26;12.60;;;4.10;;
9972;SDS011;5027;53.560;10.062;2023-02-21T05:24:53;14.23;;;4.37;;
9972;SDS011;5027;53.560;10.062;2023-02-21T05:27:20;13.63;;;4.23;;
9972;SDS011;5027;53.560;10.062;2023-02-21T05:29:51;13.10;;;4.07;;
9972;SDS011;5027;53.560;10.062;2023-02-21T05:32:19;14.03;;;4.80;;
9972;SDS011;5027;53.560;10.062;2023-02-21T05:34:47;16.00;;;3.73;;
9972;SDS011;5027;53.560;10.062;2023-02-21T05:37:14;15.20;;;4.70;;
9972;SDS011;5027;53.560;10.062;2023-02-21T05:39:41;13.17;;;4.50;;
9972;SDS011;5027;53.560;10.062;2023-02-21T05:42:08;14.10;;;4.30;;
9972;SDS011;5027;53.560;10.062;2023-02-21T05:44:35;11.93;;;3.83;;
9972;SDS011;5027;53.560;10.062;2023-02-21T05:47:01;12.37;;;4.00;;
9972;SDS011;5027;53.560;10.062;2023-02-21T05:49:28;11.90;;;3.33;;
9972;SDS011;5027;53.560;10.062;2023-02-21T05:51:55;9.93;;;3.50;;
9972;SDS011;5027;53.560;10.062;2023-02-21T05:54:21;8.20;;;3.03;;
9972;SDS011;5027;53.560;10.062;2023-02-21T05:56:48;12.37;;;3.60;;
9972;SDS011;5027;53.560;10.062;2023-02-21T05:59:17;8.70;;;2.93;;
9972;SDS011;5027;53.560;10.062;2023-02-21T06:01:45;12.80;;;3.87;;
9972;SDS011;5027;53.560;10.062;2023-02-21T06:04:13;10.23;;;2.73;;
9972;SDS011;5027;53.560;10.062;2023-02-21T06:06:40;13.97;;;4.40;;
9972;SDS011;5027;53.560;10.062;2023-02-21T06:09:08;3.67;;;1.53;;
9972;SDS011;5027;53.560;10.062;2023-02-21T06:11:36;15.93;;;4.13;;
9972;SDS011;5027;53.560;10.062;2023-02-21T06:14:05;4.17;;;1.70;;
9972;SDS011;5027;53.560;10.062;2023-02-21T06:16:34;19.80;;;4.70;;
9972;SDS011;5027;53.560;10.062;2023-02-21T06:19:03;17.63;;;4.30;;
9972;SDS011;5027;53.560;10.062;2023-02-21T06:21:31;6.10;;;2.57;;
9972;SDS011;5027;53.560;10.062;2023-02-21T06:23:58;12.70;;;3.27;;
9972;SDS011;5027;53.560;10.062;2023-02-21T06:26:25;13.33;;;3.63;;
9972;SDS011;5027;53.560;10.062;2023-02-21T06:28:52;4.50;;;1.80;;
9972;SDS011;5027;53.560;10.062;2023-02-21T06:31:19;14.40;;;4.63;;
9972;SDS011;5027;53.560;10.062;2023-02-21T06:33:47;17.10;;;4.40;;
9972;SDS011;5027;53.560;10.062;2023-02-21T06:36:15;5.90;;;1.83;;
9972;SDS011;5027;53.560;10.062;2023-02-21T06:38:48;13.17;;;3.97;;
9972;SDS011;5027;53.560;10.062;2023-02-21T06:41:17;6.50;;;2.33;;
9972;SDS011;5027;53.560;10.062;2023-02-21T06:43:45;13.50;;;4.40;;
9972;SDS011;5027;53.560;10.062;2023-02-21T06:46:16;16.27;;;5.23;;
9972;SDS011;5027;53.560;10.062;2023-02-21T06:48:43;16.70;;;5.13;;
9972;SDS011;5027;53.560;10.062;2023-02-21T06:51:10;9.83;;;2.60;;
9972;SDS011;5027;53.560;10.062;2023-02-21T06:53:40;22.03;;;5.27;;
9972;SDS011;5027;53.560;10.062;2023-02-21T06:56:07;19.03;;;4.97;;
9972;SDS011;5027;53.560;10.062;2023-02-21T06:58:34;9.77;;;3.07;;
9972;SDS011;5027;53.560;10.062;2023-02-21T07:01:01;16.87;;;4.80;;
9972;SDS011;5027;53.560;10.062;2023-02-21T07:03:28;6.40;;;2.63;;
9972;SDS011;5027;53.560;10.062;2023-02-21T07:05:55;15.60;;;5.30;;
9972;SDS011;5027;53.560;10.062;2023-02-21T07:08:21;9.60;;;3.07;;
9972;SDS011;5027;53.560;10.062;2023-02-21T07:10:48;17.63;;;5.10;;
9972;SDS011;5027;53.560;10.062;2023-02-21T07:13:14;15.60;;;4.73;;
9972;SDS011;5027;53.560;10.062;2023-02-21T07:15:41;19.90;;;5.00;;
9972;SDS011;5027;53.560;10.062;2023-02-21T07:18:08;8.83;;;3.20;;
9972;SDS011;5027;53.560;10.062;2023-02-21T07:20:34;18.93;;;4.90;;
9972;SDS011;5027;53.560;10.062;2023-02-21T07:23:01;18.40;;;4.93;;
9972;SDS011;5027;53.560;10.062;2023-02-21T07:25:27;18.43;;;4.73;;
9972;SDS011;5027;53.560;10.062;2023-02-21T07:27:58;14.20;;;4.50;;
9972;SDS011;5027;53.560;10.062;2023-02-21T07:30:24;18.60;;;4.80;;
9972;SDS011;5027;53.560;10.062;2023-02-21T07:32:51;20.93;;;5.17;;
9972;SDS011;5027;53.560;10.062;2023-02-21T07:35:17;22.40;;;5.93;;
9972;SDS011;5027;53.560;10.062;2023-02-21T07:37:44;17.80;;;4.90;;
9972;SDS011;5027;53.560;10.062;2023-02-21T07:40:12;20.80;;;4.90;;
9972;SDS011;5027;53.560;10.062;2023-02-21T07:42:41;19.40;;;5.77;;
9972;SDS011;5027;53.560;10.062;2023-02-21T07:45:09;18.07;;;4.97;;
9972;SDS011;5027;53.560;10.062;2023-02-21T07:47:36;20.27;;;5.07;;
9972;SDS011;5027;53.560;10.062;2023-02-21T07:50:03;14.23;;;3.67;;
9972;SDS011;5027;53.560;10.062;2023-02-21T07:52:30;18.07;;;5.30;;
9972;SDS011;5027;53.560;10.062;2023-02-21T07:54:57;15.83;;;4.70;;
9972;SDS011;5027;53.560;10.062;2023-02-21T07:57:24;17.07;;;4.97;;
9972;SDS011;5027;53.560;10.062;2023-02-21T07:59:50;12.93;;;3.70;;
9972;SDS011;5027;53.560;10.062;2023-02-21T08:02:17;19.17;;;4.63;;
9972;SDS011;5027;53.560;10.062;2023-02-21T08:04:44;18.27;;;5.13;;
9972;SDS011;5027;53.560;10.062;2023-02-21T08:07:14;17.33;;;4.87;;
9972;SDS011;5027;53.560;10.062;2023-02-21T08:09:41;17.37;;;4.77;;
9972;SDS011;5027;53.560;10.062;2023-02-21T08:12:08;15.37;;;5.13;;
9972;SDS011;5027;53.560;10.062;2023-02-21T08:14:34;10.97;;;3.43;;
9972;SDS011;5027;53.560;10.062;2023-02-21T08:17:01;11.47;;;3.67;;
9972;SDS011;5027;53.560;10.062;2023-02-21T08:19:27;19.13;;;5.13;;
9972;SDS011;5027;53.560;10.062;2023-02-21T08:21:54;14.37;;;5.00;;
9972;SDS011;5027;53.560;10.062;2023-02-21T08:24:21;9.27;;;3.43;;
9972;SDS011;5027;53.560;10.062;2023-02-21T08:26:47;16.70;;;4.73;;
9972;SDS011;5027;53.560;10.062;2023-02-21T08:29:14;16.20;;;4.67;;
9972;SDS011;5027;53.560;10.062;2023-02-21T08:31:43;13.37;;;4.87;;
9972;SDS011;5027;53.560;10.062;2023-02-21T08:34:10;18.20;;;5.03;;
9972;SDS011;5027;53.560;10.062;2023-02-21T08:36:38;11.33;;;3.37;;
9972;SDS011;5027;53.560;10.062;2023-02-21T08:39:07;19.10;;;4.77;;
9972;SDS011;5027;53.560;10.062;2023-02-21T08:41:41;15.00;;;4.70;;
9972;SDS011;5027;53.560;10.062;2023-02-21T08:44:10;12.07;;;4.03;;
9972;SDS011;5027;53.560;10.062;2023-02-21T08:46:41;16.77;;;4.50;;
9972;SDS011;5027;53.560;10.062;2023-02-21T08:49:08;11.27;;;2.93;;
9972;SDS011;5027;53.560;10.062;2023-02-21T08:51:36;19.03;;;4.73;;
9972;SDS011;5027;53.560;10.062;2023-02-21T08:54:02;15.93;;;4.47;;
9972;SDS011;5027;53.560;10.062;2023-02-21T08:56:29;6.57;;;2.30;;
9972;SDS011;5027;53.560;10.062;2023-02-21T08:58:56;16.97;;;4.23;;
9972;SDS011;5027;53.560;10.062;2023-02-21T09:01:23;5.47;;;2.30;;
9972;SDS011;5027;53.560;10.062;2023-02-21T09:03:55;15.33;;;4.53;;
9972;SDS011;5027;53.560;10.062;2023-02-21T09:06:22;17.00;;;4.83;;
9972;SDS011;5027;53.560;10.062;2023-02-21T09:08:48;19.10;;;4.47;;
9972;SDS011;5027;53.560;10.062;2023-02-21T09:11:15;18.63;;;4.97;;
9972;SDS011;5027;53.560;10.062;2023-02-21T09:13:42;21.70;;;5.13;;
9972;SDS011;5027;53.560;10.062;2023-02-21T09:16:08;17.27;;;4.50;;
9972;SDS011;5027;53.560;10.062;2023-02-21T09:18:35;11.27;;;3.73;;
9972;SDS011;5027;53.560;10.062;2023-02-21T09:21:02;6.53;;;2.50;;
9972;SDS011;5027;53.560;10.062;2023-02-21T09:23:29;13.67;;;4.77;;
9972;SDS011;5027;53.560;10.062;2023-02-21T09:25:58;18.23;;;4.60;;
9972;SDS011;5027;53.560;10.062;2023-02-21T09:28:25;5.87;;;2.63;;
9972;SDS011;5027;53.560;10.062;2023-02-21T09:30:52;5.87;;;2.60;;
9972;SDS011;5027;53.560;10.062;2023-02-21T09:33:18;14.60;;;4.07;;
9972;SDS011;5027;53.560;10.062;2023-02-21T09:35:45;13.80;;;4.80;;
9972;SDS011;5027;53.560;10.062;2023-02-21T09:38:12;8.77;;;3.07;;
9972;SDS011;5027;53.560;10.062;2023-02-21T09:40:43;17.53;;;4.40;;
9972;SDS011;5027;53.560;10.062;2023-02-21T09:46:12;3.97;;;2.00;;
9972;SDS011;5027;53.560;10.062;2023-02-21T09:48:46;12.93;;;3.63;;
9972;SDS011;5027;53.560;10.062;2023-02-21T09:51:13;6.23;;;2.33;;
9972;SDS011;5027;53.560;10.062;2023-02-21T09:53:42;15.13;;;4.03;;
9972;SDS011;5027;53.560;10.062;2023-02-21T09:56:13;10.80;;;3.43;;
9972;SDS011;5027;53.560;10.062;2023-02-21T09:58:55;6.10;;;2.63;;
9972;SDS011;5027;53.560;10.062;2023-02-21T10:04:28;16.37;;;4.53;;
9972;SDS011;5027;53.560;10.062;2023-02-21T10:10:31;3.80;;;2.23;;
9972;SDS011;5027;53.560;10.062;2023-02-21T10:15:55;14.27;;;4.20;;
9972;SDS011;5027;53.560;10.062;2023-02-21T10:18:36;19.13;;;5.23;;
9972;SDS011;5027;53.560;10.062;2023-02-21T10:21:26;20.10;;;4.80;;
9972;SDS011;5027;53.560;10.062;2023-02-21T10:23:56;13.40;;;4.00;;
9972;SDS011;5027;53.560;10.062;2023-02-21T10:26:30;5.53;;;2.73;;
9972;SDS011;5027;53.560;10.062;2023-02-21T10:29:03;18.73;;;4.93;;
9972;SDS011;5027;53.560;10.062;2023-02-21T10:31:38;20.97;;;5.10;;
9972;SDS011;5027;53.560;10.062;2023-02-21T10:34:14;5.37;;;2.70;;
9972;SDS011;5027;53.560;10.062;2023-02-21T10:36:49;13.57;;;3.87;;
9972;SDS011;5027;53.560;10.062;2023-02-21T10:39:18;13.83;;;4.60;;
9972;SDS011;5027;53.560;10.062;2023-02-21T10:41:49;5.40;;;2.30;;
9972;SDS011;5027;53.560;10.062;2023-02-21T10:44:18;4.63;;;2.40;;
9972;SDS011;5027;53.560;10.062;2023-02-21T10:46:53;3.70;;;1.97;;
9972;SDS011;5027;53.560;10.062;2023-02-21T10:49:24;15.43;;;4.13;;
9972;SDS011;5027;53.560;10.062;2023-02-21T10:54:35;16.67;;;5.30;;
9972;SDS011;5027;53.560;10.062;2023-02-21T10:57:03;16.40;;;5.13;;
9972;SDS011;5027;53.560;10.062;2023-02-21T10:59:34;16.30;;;4.63;;
9972;SDS011;5027;53.560;10.062;2023-02-21T11:02:20;13.00;;;4.73;;
9972;SDS011;5027;53.560;10.062;2023-02-21T11:04:53;5.67;;;2.67;;
9972;SDS011;5027;53.560;10.062;2023-02-21T11:07:20;16.80;;;5.13;;
9972;SDS011;5027;53.560;10.062;2023-02-21T11:09:49;10.30;;;3.03;;
9972;SDS011;5027;53.560;10.062;2023-02-21T11:17:22;7.13;;;2.83;;
9972;SDS011;5027;53.560;10.062;2023-02-21T11:19:52;7.27;;;2.80;;
9972;SDS011;5027;53.560;10.062;2023-02-21T11:22:24;4.83;;;2.30;;
9972;SDS011;5027;53.560;10.062;2023-02-21T11:27:37;4.20;;;2.20;;
9972;SDS011;5027;53.560;10.062;2023-02-21T11:30:13;6.10;;;2.60;;
9972;SDS011;5027;53.560;10.062;2023-02-21T11:32:47;12.67;;;4.10;;
9972;SDS011;5027;53.560;10.062;2023-02-21T11:43:10;14.67;;;3.70;;
9972;SDS011;5027;53.560;10.062;2023-02-21T11:45:48;14.47;;;4.13;;
9972;SDS011;5027;53.560;10.062;2023-02-21T11:48:26;12.40;;;3.80;;
9972;SDS011;5027;53.560;10.062;2023-02-21T11:50:58;6.50;;;2.77;;
9972;SDS011;5027;53.560;10.062;2023-02-21T11:53:33;3.93;;;2.23;;
9972;SDS011;5027;53.560;10.062;2023-02-21T12:01:53;5.20;;;2.50;;
9972;SDS011;5027;53.560;10.062;2023-02-21T12:07:28;8.80;;;2.77;;
9972;SDS011;5027;53.560;10.062;2023-02-21T12:10:22;4.57;;;2.87;;
9972;SDS011;5027;53.560;10.062;2023-02-21T12:13:01;8.30;;;3.27;;
9972;SDS011;5027;53.560;10.062;2023-02-21T12:18:47;7.20;;;2.97;;
9972;SDS011;5027;53.560;10.062;2023-02-21T12:29:55;11.37;;;3.37;;
9972;SDS011;5027;53.560;10.062;2023-02-21T12:32:49;8.93;;;3.30;;
9972;SDS011;5027;53.560;10.062;2023-02-21T12:35:52;4.23;;;2.10;;
9972;SDS011;5027;53.560;10.062;2023-02-21T12:38:42;5.83;;;2.70;;
9972;SDS011;5027;53.560;10.062;2023-02-21T12:41:27;7.37;;;3.03;;
9972;SDS011;5027;53.560;10.062;2023-02-21T13:05:46;7.60;;;2.63;;
9972;SDS011;5027;53.560;10.062;2023-02-21T13:08:38;3.87;;;1.70;;
9972;SDS011;5027;53.560;10.062;2023-02-21T13:11:34;4.33;;;2.10;;
9972;SDS011;5027;53.560;10.062;2023-02-21T13:14:37;6.23;;;2.70;;
9972;SDS011;5027;53.560;10.062;2023-02-21T13:17:14;7.17;;;2.77;;
9972;SDS011;5027;53.560;10.062;2023-02-21T13:22:15;7.10;;;3.07;;
9972;SDS011;5027;53.560;10.062;2023-02-21T13:32:50;3.20;;;1.90;;
9972;SDS011;5027;53.560;10.062;2023-02-21T13:35:32;6.60;;;2.80;;
9972;SDS011;5027;53.560;10.062;2023-02-21T13:38:06;5.07;;;2.40;;
9972;SDS011;5027;53.560;10.062;2023-02-21T13:43:12;7.23;;;2.80;;
9972;SDS011;5027;53.560;10.062;2023-02-21T13:45:43;5.80;;;2.13;;
9972;SDS011;5027;53.560;10.062;2023-02-21T13:48:18;7.47;;;3.13;;
9972;SDS011;5027;53.560;10.062;2023-02-21T13:50:55;3.43;;;1.80;;
9972;SDS011;5027;53.560;10.062;2023-02-21T13:53:28;9.50;;;2.97;;
9972;SDS011;5027;53.560;10.062;2023-02-21T13:56:18;2.97;;;1.83;;
9972;SDS011;5027;53.560;10.062;2023-02-21T13:58:46;3.50;;;1.70;;
9972;SDS011;5027;53.560;10.062;2023-02-21T14:03:55;6.70;;;2.60;;
9972;SDS011;5027;53.560;10.062;2023-02-21T14:06:33;8.20;;;2.93;;
9972;SDS011;5027;53.560;10.062;2023-02-21T14:11:45;2.00;;;1.60;;
9972;SDS011;5027;53.560;10.062;2023-02-21T14:14:22;10.80;;;2.97;;
9972;SDS011;5027;53.560;10.062;2023-02-21T14:17:02;9.43;;;3.00;;
9972;SDS011;5027;53.560;10.062;2023-02-21T14:19:35;8.53;;;3.03;;
9972;SDS011;5027;53.560;10.062;2023-02-21T14:22:03;2.93;;;1.90;;
9972;SDS011;5027;53.560;10.062;2023-02-21T14:24:37;3.70;;;1.93;;
9972;SDS011;5027;53.560;10.062;2023-02-21T14:29:38;3.13;;;2.00;;
9972;SDS011;5027;53.560;10.062;2023-02-21T14:37:05;5.97;;;2.37;;
9972;SDS011;5027;53.560;10.062;2023-02-21T14:39:45;5.30;;;2.47;;
9972;SDS011;5027;53.560;10.062;2023-02-21T14:53:26;5.10;;;2.27;;
9972;SDS011;5027;53.560;10.062;2023-02-21T14:56:02;3.50;;;1.93;;
9972;SDS011;5027;53.560;10.062;2023-02-21T15:07:09;5.13;;;2.50;;
9972;SDS011;5027;53.560;10.062;2023-02-21T15:12:46;2.93;;;1.70;;
9972;SDS011;5027;53.560;10.062;2023-02-21T15:15:19;9.20;;;3.17;;
9972;SDS011;5027;53.560;10.062;2023-02-21T15:18:07;5.93;;;2.83;;
9972;SDS011;5027;53.560;10.062;2023-02-21T15:20:37;10.27;;;2.70;;
9972;SDS011;5027;53.560;10.062;2023-02-21T15:25:35;3.57;;;1.90;;
9972;SDS011;5027;53.560;10.062;2023-02-21T15:28:03;3.87;;;1.67;;
9972;SDS011;5027;53.560;10.062;2023-02-21T15:30:36;4.60;;;1.97;;
9972;SDS011;5027;53.560;10.062;2023-02-21T15:33:18;3.10;;;1.63;;
9972;SDS011;5027;53.560;10.062;2023-02-21T15:40:48;8.73;;;2.93;;
9972;SDS011;5027;53.560;10.062;2023-02-21T15:43:22;5.43;;;2.40;;
9972;SDS011;5027;53.560;10.062;2023-02-21T15:46:02;8.80;;;2.43;;
9972;SDS011;5027;53.560;10.062;2023-02-21T15:48:31;6.87;;;2.60;;
9972;SDS011;5027;53.560;10.062;2023-02-21T15:51:01;5.67;;;2.20;;
9972;SDS011;5027;53.560;10.062;2023-02-21T15:53:31;4.67;;;2.53;;
9972;SDS011;5027;53.560;10.062;2023-02-21T15:56:15;5.53;;;2.07;;
9972;SDS011;5027;53.560;10.062;2023-02-21T16:01:38;5.50;;;2.10;;
9972;SDS011;5027;53.560;10.062;2023-02-21T16:04:18;5.07;;;2.17;;
9972;SDS011;5027;53.560;10.062;2023-02-21T16:06:52;6.43;;;2.77;;
9972;SDS011;5027;53.560;10.062;2023-02-21T16:09:22;5.47;;;2.37;;
9972;SDS011;5027;53.560;10.062;2023-02-21T16:17:26;8.70;;;3.47;;
9972;SDS011;5027;53.560;10.062;2023-02-21T16:22:42;9.63;;;3.00;;
9972;SDS011;5027;53.560;10.062;2023-02-21T16:25:32;9.07;;;2.77;;
9972;SDS011;5027;53.560;10.062;2023-02-21T16:27:59;5.17;;;2.10;;
9972;SDS011;5027;53.560;10.062;2023-02-21T16:30:28;7.33;;;3.23;;
9972;SDS011;5027;53.560;10.062;2023-02-21T16:33:00;7.33;;;3.20;;
9972;SDS011;5027;53.560;10.062;2023-02-21T16:35:28;3.90;;;2.10;;
9972;SDS011;5027;53.560;10.062;2023-02-21T16:37:56;8.63;;;2.80;;
9972;SDS011;5027;53.560;10.062;2023-02-21T16:40:26;8.13;;;2.70;;
9972;SDS011;5027;53.560;10.062;2023-02-21T16:42:55;6.53;;;3.17;;
9972;SDS011;5027;53.560;10.062;2023-02-21T16:45:22;6.33;;;3.10;;
9972;SDS011;5027;53.560;10.062;2023-02-21T16:47:54;10.10;;;3.13;;
9972;SDS011;5027;53.560;10.062;2023-02-21T16:50:31;10.37;;;2.73;;
9972;SDS011;5027;53.560;10.062;2023-02-21T16:53:03;8.17;;;3.13;;
9972;SDS011;5027;53.560;10.062;2023-02-21T16:55:30;11.73;;;3.00;;
9972;SDS011;5027;53.560;10.062;2023-02-21T16:57:58;6.13;;;2.87;;
9972;SDS011;5027;53.560;10.062;2023-02-21T17:00:28;6.70;;;2.33;;
9972;SDS011;5027;53.560;10.062;2023-02-21T17:02:55;6.83;;;2.60;;
9972;SDS011;5027;53.560;10.062;2023-02-21T17:05:22;9.50;;;3.17;;
9972;SDS011;5027;53.560;10.062;2023-02-21T17:07:52;10.80;;;6.67;;
9972;SDS011;5027;53.560;10.062;2023-02-21T17:10:20;5.67;;;3.20;;
9972;SDS011;5027;53.560;10.062;2023-02-21T17:12:47;8.83;;;3.10;;
9972;SDS011;5027;53.560;10.062;2023-02-21T17:15:14;7.03;;;3.13;;
9972;SDS011;5027;53.560;10.062;2023-02-21T17:17:41;6.43;;;2.40;;
9972;SDS011;5027;53.560;10.062;2023-02-21T17:20:17;6.83;;;2.43;;
9972;SDS011;5027;53.560;10.062;2023-02-21T17:22:45;3.27;;;1.80;;
9972;SDS011;5027;53.560;10.062;2023-02-21T17:25:13;5.10;;;2.10;;
9972;SDS011;5027;53.560;10.062;2023-02-21T17:27:41;4.50;;;2.13;;
9972;SDS011;5027;53.560;10.062;2023-02-21T17:30:08;6.77;;;3.10;;
9972;SDS011;5027;53.560;10.062;2023-02-21T17:32:36;7.67;;;2.70;;
9972;SDS011;5027;53.560;10.062;2023-02-21T17:35:03;5.00;;;2.40;;
9972;SDS011;5027;53.560;10.062;2023-02-21T17:37:30;6.90;;;2.87;;
9972;SDS011;5027;53.560;10.062;2023-02-21T17:39:57;7.33;;;4.00;;
9972;SDS011;5027;53.560;10.062;2023-02-21T17:42:24;6.83;;;2.80;;
9972;SDS011;5027;53.560;10.062;2023-02-21T17:44:50;6.33;;;3.03;;
9972;SDS011;5027;53.560;10.062;2023-02-21T17:47:19;7.53;;;3.40;;
9972;SDS011;5027;53.560;10.062;2023-02-21T17:49:47;4.10;;;2.80;;
9972;SDS011;5027;53.560;10.062;2023-02-21T17:52:14;1.60;;;1.13;;
9972;SDS011;5027;53.560;10.062;2023-02-21T17:54:42;1.90;;;1.43;;
9972;SDS011;5027;53.560;10.062;2023-02-21T17:57:09;6.50;;;3.07;;
9972;SDS011;5027;53.560;10.062;2023-02-21T17:59:36;4.33;;;2.73;;
9972;SDS011;5027;53.560;10.062;2023-02-21T18:02:03;4.43;;;2.23;;
9972;SDS011;5027;53.560;10.062;2023-02-21T18:04:31;3.87;;;2.80;;
9972;SDS011;5027;53.560;10.062;2023-02-21T18:06:58;4.87;;;2.70;;
9972;SDS011;5027;53.560;10.062;2023-02-21T18:09:25;5.67;;;3.17;;